createdAt,value
2017-06-17T00:00:59.450Z,96.37
2017-06-17T00:01:59.427Z,96.47
2017-06-17T00:02:59.408Z,96.37
2017-06-17T00:03:59.388Z,96.56
2017-06-17T00:04:59.385Z,96.27
2017-06-17T00:05:59.368Z,95.98
2017-06-17T00:06:59.389Z,97.04
2017-06-17T00:07:59.024Z,96.85
2017-06-17T00:08:59.308Z,96.66
2017-06-17T00:09:58.978Z,96.94
2017-06-17T00:10:59.282Z,96.66
2017-06-17T00:11:59.258Z,96.66
2017-06-17T00:12:59.355Z,96.56
2017-06-17T00:13:59.241Z,96.85
2017-06-17T00:14:58.919Z,96.27
2017-06-17T00:15:59.208Z,96.37
2017-06-17T00:16:59.178Z,96.66
2017-06-17T00:17:59.169Z,96.66
2017-06-17T00:18:59.138Z,96.85
2017-06-17T00:19:59.130Z,97.23
2017-06-17T00:20:59.116Z,97.14
2017-06-17T00:21:58.782Z,96.94
2017-06-17T00:22:59.091Z,96.94
2017-06-17T00:23:59.053Z,97.14
2017-06-17T00:24:59.037Z,96.66
2017-06-17T00:25:58.718Z,97.33
2017-06-17T00:26:59.009Z,97.52
2017-06-17T00:27:59.093Z,97.52
2017-06-17T00:28:58.973Z,98.1
2017-06-17T00:29:58.955Z,97.95
2017-06-17T00:30:58.944Z,98.24
2017-06-17T00:31:58.925Z,98.14
2017-06-17T00:32:58.602Z,98.05
2017-06-17T00:33:58.587Z,97.95
2017-06-17T00:34:58.884Z,98.62
2017-06-17T00:35:58.878Z,97.95
2017-06-17T00:36:58.838Z,98.24
2017-06-17T00:37:58.517Z,98.24
2017-06-17T00:38:58.801Z,97.85
2017-06-17T00:39:58.798Z,97.85
2017-06-17T00:40:58.758Z,98.14
2017-06-17T00:41:58.748Z,98.24
2017-06-17T00:42:58.420Z,98.24
2017-06-17T00:43:58.414Z,98.05
2017-06-17T00:44:58.396Z,97.95
2017-06-17T00:45:58.676Z,97.85
2017-06-17T00:46:58.357Z,97.38
2017-06-17T00:47:58.651Z,97.76
2017-06-17T00:48:58.322Z,98.14
2017-06-17T00:49:58.617Z,98.24
2017-06-17T00:50:58.294Z,98.52
2017-06-17T00:51:58.282Z,98.52
2017-06-17T00:52:58.253Z,98.05
2017-06-17T00:53:58.548Z,98.24
2017-06-17T00:54:58.526Z,98.24
2017-06-17T00:55:58.198Z,98.14
2017-06-17T00:56:58.496Z,98.14
2017-06-17T00:57:58.484Z,97.95
2017-06-17T00:58:58.471Z,97.76
2017-06-17T00:59:58.442Z,98.05
2017-06-17T01:00:58.121Z,97.95
2017-06-17T01:01:58.408Z,97.95
2017-06-17T01:02:58.401Z,97.76
2017-06-17T01:03:58.067Z,97.47
2017-06-17T01:04:58.372Z,98.14
2017-06-17T01:05:58.339Z,97.85
2017-06-17T01:06:58.063Z,97.95
2017-06-17T01:07:58.008Z,98.14
2017-06-17T01:08:58.281Z,97.28
2017-06-17T01:09:58.272Z,98.14
2017-06-17T01:10:57.976Z,97.95
2017-06-17T01:11:57.935Z,98.24
2017-06-17T01:12:58.219Z,97.95
2017-06-17T01:13:58.220Z,97.85
2017-06-17T01:14:57.888Z,97.95
2017-06-17T01:15:58.169Z,97.95
2017-06-17T01:16:58.089Z,98.52
2017-06-17T01:17:57.840Z,97.85
2017-06-17T01:18:57.830Z,98.24
2017-06-17T01:19:58.108Z,98.14
2017-06-17T01:20:57.777Z,97.95
2017-06-17T01:21:58.069Z,98.05
2017-06-17T01:22:58.100Z,98.24
2017-06-17T01:23:58.035Z,98.14
2017-06-17T01:24:58.034Z,98.05
2017-06-17T01:25:57.696Z,97.95
2017-06-17T01:26:57.672Z,97.95
2017-06-17T01:27:57.959Z,98.05
2017-06-17T01:28:57.970Z,98.05
2017-06-17T01:29:57.922Z,97.66
2017-06-17T01:30:57.920Z,97.38
2017-06-17T01:31:57.893Z,98.05
2017-06-17T01:32:57.569Z,97.85
2017-06-17T01:33:57.561Z,97.85
2017-06-17T01:34:57.870Z,97.95
2017-06-17T01:35:57.822Z,98.14
2017-06-17T01:36:57.562Z,97.66
2017-06-17T01:37:57.860Z,97.47
2017-06-17T01:38:57.784Z,97.76
2017-06-17T01:39:57.763Z,97.38
2017-06-17T01:40:57.739Z,98.24
2017-06-17T01:41:57.723Z,98.14
2017-06-17T01:42:57.702Z,97.95
2017-06-17T01:43:57.716Z,97.95
2017-06-17T01:44:57.672Z,97.95
2017-06-17T01:45:57.656Z,98.14
2017-06-17T01:46:57.399Z,98.05
2017-06-17T01:47:57.620Z,98.14
2017-06-17T01:48:57.599Z,97.85
2017-06-17T01:49:57.589Z,98.05
2017-06-17T01:50:57.570Z,97.85
2017-06-17T01:51:57.643Z,98.05
2017-06-17T01:52:57.532Z,97.76
2017-06-17T01:53:57.590Z,97.28
2017-06-17T01:54:57.193Z,97.66
2017-06-17T01:55:57.546Z,97.66
2017-06-17T01:56:57.159Z,97.47
2017-06-17T01:57:57.148Z,97.66
2017-06-17T01:58:57.434Z,97.47
2017-06-17T01:59:57.116Z,97.42
2017-06-17T02:00:57.399Z,98.14
2017-06-17T02:01:57.390Z,98.05
2017-06-17T02:02:57.372Z,98.19
2017-06-17T02:03:57.437Z,98.33
2017-06-17T02:04:57.328Z,97.28
2017-06-17T02:05:57.377Z,97.47
2017-06-17T02:06:57.298Z,98.05
2017-06-17T02:07:57.280Z,98.14
2017-06-17T02:08:57.262Z,97.95
2017-06-17T02:09:56.952Z,97.85
2017-06-17T02:10:56.928Z,98.05
2017-06-17T02:11:57.230Z,98.24
2017-06-17T02:12:56.889Z,98.43
2017-06-17T02:13:57.179Z,97.76
2017-06-17T02:14:57.157Z,98.05
2017-06-17T02:15:57.150Z,98.62
2017-06-17T02:16:57.160Z,98.81
2017-06-17T02:17:57.108Z,99.01
2017-06-17T02:18:56.890Z,98.72
2017-06-17T02:19:57.071Z,98.62
2017-06-17T02:20:56.761Z,98.81
2017-06-17T02:21:57.041Z,98.43
2017-06-17T02:22:57.021Z,98.14
2017-06-17T02:23:57.002Z,98.24
2017-06-17T02:24:56.990Z,98.33
2017-06-17T02:25:56.970Z,98.05
2017-06-17T02:26:56.958Z,98.05
2017-06-17T02:27:56.940Z,98.14
2017-06-17T02:28:56.922Z,98.33
2017-06-17T02:29:56.597Z,98.14
2017-06-17T02:30:56.586Z,98.14
2017-06-17T02:31:56.570Z,97.95
2017-06-17T02:32:56.541Z,97.42
2017-06-17T02:33:56.839Z,98.1
2017-06-17T02:34:56.820Z,97.47
2017-06-17T02:35:56.806Z,97.81
2017-06-17T02:36:56.781Z,97.28
2017-06-17T02:37:56.460Z,97.52
2017-06-17T02:38:56.746Z,97.28
2017-06-17T02:39:56.424Z,97.28
2017-06-17T02:40:56.408Z,97.18
2017-06-17T02:41:56.701Z,97.47
2017-06-17T02:42:56.682Z,97.47
2017-06-17T02:43:56.365Z,97.23
2017-06-17T02:44:56.649Z,97.04
2017-06-17T02:45:56.641Z,97.42
2017-06-17T02:46:56.619Z,97.09
2017-06-17T02:47:56.620Z,97.09
2017-06-17T02:48:56.591Z,96.94
2017-06-17T02:49:56.270Z,97.14
2017-06-17T02:50:56.541Z,97.18
2017-06-17T02:51:56.525Z,97.33
2017-06-17T02:52:56.511Z,97.14
2017-06-17T02:53:56.191Z,96.99
2017-06-17T02:54:56.170Z,97.09
2017-06-17T02:55:56.461Z,97.09
2017-06-17T02:56:56.440Z,97.18
2017-06-17T02:57:56.441Z,97.09
2017-06-17T02:58:56.119Z,97.18
2017-06-17T02:59:56.389Z,97.28
2017-06-17T03:00:56.370Z,97.18
2017-06-17T03:01:56.355Z,96.89
2017-06-17T03:02:56.343Z,97.14
2017-06-17T03:03:56.321Z,96.85
2017-06-17T03:04:56.312Z,96.66
2017-06-17T03:05:56.290Z,96.89
2017-06-17T03:06:56.268Z,96.7
2017-06-17T03:07:56.273Z,96.8
2017-06-17T03:08:55.935Z,97.38
2017-06-17T03:09:56.223Z,97.47
2017-06-17T03:10:56.223Z,96.99
2017-06-17T03:11:56.201Z,97.09
2017-06-17T03:12:56.176Z,97.28
2017-06-17T03:13:55.852Z,96.8
2017-06-17T03:14:56.150Z,97.28
2017-06-17T03:15:56.117Z,97.47
2017-06-17T03:16:56.113Z,97.47
2017-06-17T03:17:55.841Z,97.18
2017-06-17T03:18:55.761Z,96.99
2017-06-17T03:19:56.055Z,97.09
2017-06-17T03:20:56.040Z,96.89
2017-06-17T03:21:56.015Z,97.28
2017-06-17T03:22:55.693Z,96.7
2017-06-17T03:23:55.991Z,96.66
2017-06-17T03:24:55.663Z,96.8
2017-06-17T03:25:55.970Z,96.37
2017-06-17T03:26:55.933Z,96.47
2017-06-17T03:27:55.920Z,96.37
2017-06-17T03:28:55.591Z,95.98
2017-06-17T03:29:55.885Z,96.47
2017-06-17T03:30:55.870Z,96.18
2017-06-17T03:31:55.854Z,96.27
2017-06-17T03:32:55.832Z,95.79
2017-06-17T03:33:55.811Z,95.6
2017-06-17T03:34:55.497Z,95.6
2017-06-17T03:35:55.794Z,95.79
2017-06-17T03:36:55.765Z,95.6
2017-06-17T03:37:55.493Z,95.51
2017-06-17T03:38:55.733Z,95.98
2017-06-17T03:39:55.776Z,95.98
2017-06-17T03:40:55.689Z,95.6
2017-06-17T03:41:55.446Z,95.89
2017-06-17T03:42:55.676Z,95.79
2017-06-17T03:43:55.763Z,95.98
2017-06-17T03:44:55.325Z,96.32
2017-06-17T03:45:55.613Z,96.42
2017-06-17T03:46:55.591Z,96.42
2017-06-17T03:47:55.281Z,97.09
2017-06-17T03:48:55.262Z,97.56
2017-06-17T03:49:55.319Z,97.56
2017-06-17T03:50:55.535Z,98.33
2017-06-17T03:51:55.514Z,97.76
2017-06-17T03:52:55.490Z,97.38
2017-06-17T03:53:55.489Z,97.28
2017-06-17T03:54:55.147Z,97.09
2017-06-17T03:55:55.456Z,96.99
2017-06-17T03:56:55.514Z,96.61
2017-06-17T03:57:55.445Z,96.99
2017-06-17T03:58:55.403Z,96.66
2017-06-17T03:59:55.073Z,96.47
2017-06-17T04:00:55.363Z,96.18
2017-06-17T04:01:55.341Z,96.27
2017-06-17T04:02:55.324Z,96.08
2017-06-17T04:03:55.321Z,95.79
2017-06-17T04:04:55.295Z,95.7
2017-06-17T04:05:55.267Z,95.6
2017-06-17T04:06:55.260Z,96.08
2017-06-17T04:07:55.241Z,95.51
2017-06-17T04:08:54.914Z,95.31
2017-06-17T04:09:54.894Z,95.41
2017-06-17T04:10:55.198Z,95.31
2017-06-17T04:11:54.864Z,95.31
2017-06-17T04:12:55.152Z,95.51
2017-06-17T04:13:55.144Z,95.51
2017-06-17T04:14:55.137Z,95.79
2017-06-17T04:15:55.099Z,96.08
2017-06-17T04:16:55.155Z,96.27
2017-06-17T04:17:55.073Z,96.27
2017-06-17T04:18:54.768Z,96.27
2017-06-17T04:19:55.051Z,96.18
2017-06-17T04:20:55.019Z,97.04
2017-06-17T04:21:55.020Z,96.66
2017-06-17T04:22:54.989Z,96.47
2017-06-17T04:23:54.662Z,96.66
2017-06-17T04:24:54.644Z,96.66
2017-06-17T04:25:54.629Z,96.56
2017-06-17T04:26:54.925Z,96.75
2017-06-17T04:27:54.595Z,96.94
2017-06-17T04:28:54.584Z,97.04
2017-06-17T04:29:54.877Z,96.27
2017-06-17T04:30:54.867Z,97.04
2017-06-17T04:31:54.844Z,96.66
2017-06-17T04:32:54.824Z,96.85
2017-06-17T04:33:54.801Z,96.56
2017-06-17T04:34:54.791Z,96.66
2017-06-17T04:35:54.762Z,96.75
2017-06-17T04:36:54.755Z,96.27
2017-06-17T04:37:54.734Z,96.56
2017-06-17T04:38:54.419Z,96.75
2017-06-17T04:39:54.704Z,96.75
2017-06-17T04:40:54.377Z,97.04
2017-06-17T04:41:54.662Z,97.23
2017-06-17T04:42:54.649Z,97.76
2017-06-17T04:43:54.331Z,97.38
2017-06-17T04:44:54.621Z,97.56
2017-06-17T04:45:54.613Z,97.23
2017-06-17T04:46:54.582Z,97.14
2017-06-17T04:47:54.561Z,97.23
2017-06-17T04:48:54.241Z,97.61
2017-06-17T04:49:54.533Z,97.04
2017-06-17T04:50:54.218Z,96.94
2017-06-17T04:51:54.246Z,97.23
2017-06-17T04:52:54.480Z,97.04
2017-06-17T04:53:54.461Z,97.52
2017-06-17T04:54:54.448Z,97.14
2017-06-17T04:55:54.141Z,97.42
2017-06-17T04:56:54.412Z,96.94
2017-06-17T04:57:54.412Z,96.85
2017-06-17T04:58:54.374Z,96.66
2017-06-17T04:59:54.055Z,97.14
2017-06-17T05:00:54.047Z,96.85
2017-06-17T05:01:54.331Z,97.33
2017-06-17T05:02:54.311Z,97.23
2017-06-17T05:03:54.042Z,97.42
2017-06-17T05:04:53.981Z,97.23
2017-06-17T05:05:54.254Z,97.33
2017-06-17T05:06:53.941Z,97.52
2017-06-17T05:07:53.929Z,97.61
2017-06-17T05:08:54.226Z,96.94
2017-06-17T05:09:53.891Z,96.89
2017-06-17T05:10:54.192Z,97.19
2017-06-17T05:11:53.860Z,96.7
2017-06-17T05:12:54.362Z,97.04
2017-06-17T05:13:54.132Z,97.19
2017-06-17T05:14:54.140Z,97.14
2017-06-17T05:15:54.163Z,97.14
2017-06-17T05:16:54.086Z,97.76
2017-06-17T05:17:54.058Z,97.61
2017-06-17T05:18:54.052Z,97.23
2017-06-17T05:19:53.727Z,97.04
2017-06-17T05:20:54.014Z,97.14
2017-06-17T05:21:53.690Z,97.14
2017-06-17T05:22:53.679Z,97.28
2017-06-17T05:23:53.972Z,97.09
2017-06-17T05:24:54.002Z,97.19
2017-06-17T05:25:53.938Z,97.38
2017-06-17T05:26:53.952Z,97.33
2017-06-17T05:27:53.907Z,97.52
2017-06-17T05:28:53.891Z,98
2017-06-17T05:29:53.873Z,98.19
2017-06-17T05:30:53.849Z,98.14
2017-06-17T05:31:53.522Z,98.28
2017-06-17T05:32:53.829Z,97.71
2017-06-17T05:33:53.799Z,97.76
2017-06-17T05:34:53.470Z,98.19
2017-06-17T05:35:53.452Z,98
2017-06-17T05:36:53.761Z,98.48
2017-06-17T05:37:53.432Z,98.1
2017-06-17T05:38:53.400Z,98.1
2017-06-17T05:39:53.393Z,97.33
2017-06-17T05:40:53.371Z,98.19
2017-06-17T05:41:53.663Z,98.19
2017-06-17T05:42:53.334Z,98.24
2017-06-17T05:43:53.323Z,98.24
2017-06-17T05:44:53.623Z,97.56
2017-06-17T05:45:53.601Z,98.14
2017-06-17T05:46:53.578Z,98.24
2017-06-17T05:47:53.253Z,98.14
2017-06-17T05:48:53.546Z,97.66
2017-06-17T05:49:53.532Z,97.33
2017-06-17T05:50:53.521Z,98.1
2017-06-17T05:51:53.500Z,98.19
2017-06-17T05:52:53.492Z,98.43
2017-06-17T05:53:53.160Z,97.71
2017-06-17T05:54:53.443Z,97.38
2017-06-17T05:55:53.452Z,97.47
2017-06-17T05:56:53.409Z,97.76
2017-06-17T05:57:53.422Z,97.66
2017-06-17T05:58:53.076Z,97.56
2017-06-17T05:59:53.371Z,97.76
2017-06-17T06:00:53.340Z,97.66
2017-06-17T06:01:53.323Z,97.56
2017-06-17T06:02:53.008Z,98.05
2017-06-17T06:03:53.309Z,98.14
2017-06-17T06:04:53.274Z,98.28
2017-06-17T06:05:53.261Z,99.34
2017-06-17T06:06:53.245Z,99.05
2017-06-17T06:07:53.233Z,99.05
2017-06-17T06:08:53.213Z,99.44
2017-06-17T06:09:53.203Z,98.77
2017-06-17T06:10:53.201Z,98.67
2017-06-17T06:11:52.859Z,98.38
2017-06-17T06:12:52.850Z,98.14
2017-06-17T06:13:53.133Z,98.33
2017-06-17T06:14:53.124Z,98.62
2017-06-17T06:15:53.111Z,98.82
2017-06-17T06:16:53.084Z,98.82
2017-06-17T06:17:53.070Z,98.72
2017-06-17T06:18:53.042Z,98.82
2017-06-17T06:19:53.031Z,98.82
2017-06-17T06:20:53.016Z,98.53
2017-06-17T06:21:53.013Z,98.72
2017-06-17T06:22:52.979Z,98.82
2017-06-17T06:23:52.968Z,98.62
2017-06-17T06:24:52.972Z,98.43
2017-06-17T06:25:52.631Z,98.33
2017-06-17T06:26:52.922Z,98.29
2017-06-17T06:27:52.902Z,98
2017-06-17T06:28:52.893Z,98
2017-06-17T06:29:52.866Z,97.42
2017-06-17T06:30:52.862Z,97.42
2017-06-17T06:31:52.835Z,97.81
2017-06-17T06:32:52.832Z,97.33
2017-06-17T06:33:52.811Z,97.42
2017-06-17T06:34:52.786Z,97.04
2017-06-17T06:35:52.471Z,96.94
2017-06-17T06:36:52.754Z,97.09
2017-06-17T06:37:52.731Z,96.7
2017-06-17T06:38:52.729Z,96.89
2017-06-17T06:39:52.717Z,96.89
2017-06-17T06:40:52.386Z,96.89
2017-06-17T06:41:52.364Z,96.61
2017-06-17T06:42:52.682Z,96.89
2017-06-17T06:43:52.344Z,97.09
2017-06-17T06:44:52.323Z,97.28
2017-06-17T06:45:52.312Z,96.8
2017-06-17T06:46:52.291Z,97.09
2017-06-17T06:47:52.590Z,97.09
2017-06-17T06:48:52.582Z,97.19
2017-06-17T06:49:52.240Z,97.28
2017-06-17T06:50:52.228Z,97.24
2017-06-17T06:51:52.523Z,97.09
2017-06-17T06:52:52.505Z,97.42
2017-06-17T06:53:52.224Z,97.38
2017-06-17T06:54:52.283Z,97.38
2017-06-17T06:55:52.149Z,97.42
2017-06-17T06:56:52.452Z,97.57
2017-06-17T06:57:52.422Z,97.52
2017-06-17T06:58:52.116Z,97.57
2017-06-17T06:59:52.392Z,98.24
2017-06-17T07:00:52.382Z,98.24
2017-06-17T07:01:52.368Z,98.34
2017-06-17T07:02:52.470Z,98.53
2017-06-17T07:03:52.341Z,98.24
2017-06-17T07:04:52.351Z,98.91
2017-06-17T07:05:52.021Z,99.4
2017-06-17T07:06:52.297Z,99.01
2017-06-17T07:07:52.385Z,98.72
2017-06-17T07:08:52.353Z,98.72
2017-06-17T07:09:52.274Z,98.96
2017-06-17T07:10:52.012Z,98.96
2017-06-17T07:11:51.902Z,98.96
2017-06-17T07:12:52.317Z,98.68
2017-06-17T07:13:52.178Z,98.48
2017-06-17T07:14:52.161Z,98.48
2017-06-17T07:15:51.857Z,98.68
2017-06-17T07:16:51.842Z,98.68
2017-06-17T07:17:51.806Z,98.68
2017-06-17T07:18:52.117Z,98.68
2017-06-17T07:19:51.774Z,99.3
2017-06-17T07:20:51.813Z,99.3
2017-06-17T07:21:51.753Z,99.4
2017-06-17T07:22:51.803Z,99.4
2017-06-17T07:23:51.732Z,99.4
2017-06-17T07:24:52.015Z,99.2
2017-06-17T07:25:52.212Z,99.49
2017-06-17T07:26:52.053Z,99.15
2017-06-17T07:27:51.973Z,99.99
2017-06-17T07:28:51.943Z,99.99
2017-06-17T07:29:51.977Z,99.97
2017-06-17T07:30:52.013Z,99.97
2017-06-17T07:31:51.594Z,99.99
2017-06-17T07:32:51.925Z,99.99
2017-06-17T07:33:51.863Z,99.99
2017-06-17T07:34:51.868Z,99.99
2017-06-17T07:35:51.833Z,99.99
2017-06-17T07:36:51.516Z,99.78
2017-06-17T07:37:51.923Z,99.99
2017-06-17T07:38:51.793Z,99.78
2017-06-17T07:39:51.779Z,99.99
2017-06-17T07:40:51.532Z,99.99
2017-06-17T07:41:51.432Z,99.99
2017-06-17T07:42:51.736Z,99.99
2017-06-17T07:43:51.443Z,99.99
2017-06-17T07:44:51.395Z,99.99
2017-06-17T07:45:51.433Z,99.99
2017-06-17T07:46:51.663Z,99.99
2017-06-17T07:47:51.649Z,99.92
2017-06-17T07:48:51.925Z,99.83
2017-06-17T07:49:51.328Z,99.83
2017-06-17T07:50:51.785Z,99.99
2017-06-17T07:51:51.292Z,99.83
2017-06-17T07:52:51.591Z,99.99
2017-06-17T07:53:51.565Z,99.83
2017-06-17T07:54:51.254Z,99.73
2017-06-17T07:55:51.558Z,99.83
2017-06-17T07:56:51.516Z,99.73
2017-06-17T07:57:51.192Z,99.73
2017-06-17T07:58:51.484Z,99.99
2017-06-17T07:59:51.155Z,99.99
2017-06-17T08:00:51.527Z,99.92
2017-06-17T08:01:51.500Z,99.92
2017-06-17T08:02:51.430Z,99.99
2017-06-17T08:03:51.403Z,99.21
2017-06-17T08:04:51.109Z,99.4
2017-06-17T08:05:51.373Z,99.59
2017-06-17T08:06:51.095Z,99.25
2017-06-17T08:07:51.342Z,99.49
2017-06-17T08:08:51.335Z,99.4
2017-06-17T08:09:51.318Z,99.3
2017-06-17T08:10:51.402Z,99.3
2017-06-17T08:11:50.980Z,98.72
2017-06-17T08:12:50.972Z,98.82
2017-06-17T08:13:50.955Z,98.91
2017-06-17T08:14:51.253Z,98.68
2017-06-17T08:15:50.923Z,98.72
2017-06-17T08:16:51.223Z,98.53
2017-06-17T08:17:51.207Z,99.06
2017-06-17T08:18:51.192Z,98.77
2017-06-17T08:19:50.863Z,98.29
2017-06-17T08:20:50.850Z,98.39
2017-06-17T08:21:51.144Z,98.29
2017-06-17T08:22:50.825Z,98.1
2017-06-17T08:23:51.123Z,98.68
2017-06-17T08:24:51.135Z,98.58
2017-06-17T08:25:51.102Z,99.16
2017-06-17T08:26:51.077Z,98.49
2017-06-17T08:27:50.748Z,98.58
2017-06-17T08:28:51.050Z,99.16
2017-06-17T08:29:51.035Z,98.39
2017-06-17T08:30:51.019Z,98.29
2017-06-17T08:31:50.993Z,97.81
2017-06-17T08:32:50.991Z,97.91
2017-06-17T08:33:50.983Z,98.39
2017-06-17T08:34:50.960Z,98.19
2017-06-17T08:35:51.006Z,98.49
2017-06-17T08:36:50.622Z,98.77
2017-06-17T08:37:50.600Z,98.68
2017-06-17T08:38:50.895Z,98.68
2017-06-17T08:39:50.583Z,99.16
2017-06-17T08:40:50.568Z,98.96
2017-06-17T08:41:50.863Z,98.58
2017-06-17T08:42:50.843Z,98.39
2017-06-17T08:43:50.826Z,98.1
2017-06-17T08:44:50.809Z,98.19
2017-06-17T08:45:50.552Z,98.44
2017-06-17T08:46:50.773Z,98.05
2017-06-17T08:47:50.462Z,97.52
2017-06-17T08:48:50.755Z,98.24
2017-06-17T08:49:50.436Z,98.29
2017-06-17T08:50:50.419Z,98.29
2017-06-17T08:51:50.709Z,98.29
2017-06-17T08:52:50.691Z,98.44
2017-06-17T08:53:50.678Z,98.34
2017-06-17T08:54:50.671Z,98.54
2017-06-17T08:55:50.689Z,97.67
2017-06-17T08:56:50.646Z,97.19
2017-06-17T08:57:50.623Z,96.8
2017-06-17T08:58:50.606Z,97.28
2017-06-17T08:59:50.603Z,97.14
2017-06-17T09:00:50.577Z,96.7
2017-06-17T09:01:50.589Z,96.8
2017-06-17T09:02:50.548Z,96.7
2017-06-17T09:03:50.302Z,96.99
2017-06-17T09:04:50.520Z,97.28
2017-06-17T09:05:50.528Z,97.28
2017-06-17T09:06:50.505Z,96.22
2017-06-17T09:07:50.523Z,95.89
2017-06-17T09:08:50.484Z,94.73
2017-06-17T09:09:50.491Z,94.44
2017-06-17T09:10:50.456Z,95.4
2017-06-17T09:11:50.433Z,95.12
2017-06-17T09:12:50.424Z,94.92
2017-06-17T09:13:50.457Z,94.54
2017-06-17T09:14:50.380Z,94.82
2017-06-17T09:15:50.483Z,94.44
2017-06-17T09:16:50.369Z,94.44
2017-06-17T09:17:50.363Z,94.64
2017-06-17T09:18:50.020Z,94.54
2017-06-17T09:19:50.334Z,94.1
2017-06-17T09:20:50.316Z,94.54
2017-06-17T09:21:49.998Z,94.68
2017-06-17T09:22:50.382Z,94.73
2017-06-17T09:23:50.256Z,94.73
2017-06-17T09:24:49.945Z,95.07
2017-06-17T09:25:50.271Z,95.17
2017-06-17T09:26:49.911Z,95.55
2017-06-17T09:27:50.214Z,95.45
2017-06-17T09:28:49.886Z,95.65
2017-06-17T09:29:49.867Z,95.98
2017-06-17T09:30:49.853Z,95.98
2017-06-17T09:31:50.151Z,95.69
2017-06-17T09:32:49.826Z,95.21
2017-06-17T09:33:50.123Z,95.21
2017-06-17T09:34:50.103Z,95.31
2017-06-17T09:35:50.096Z,94.73
2017-06-17T09:36:50.081Z,94.54
2017-06-17T09:37:50.065Z,94.92
2017-06-17T09:38:50.049Z,95.31
2017-06-17T09:39:50.035Z,96.08
2017-06-17T09:40:50.019Z,95.6
2017-06-17T09:41:50.019Z,96.17
2017-06-17T09:42:49.991Z,96.61
2017-06-17T09:43:49.977Z,96.51
2017-06-17T09:44:49.971Z,96.89
2017-06-17T09:45:49.963Z,96.42
2017-06-17T09:46:49.941Z,96.12
2017-06-17T09:47:49.935Z,95.89
2017-06-17T09:48:49.600Z,95.89
2017-06-17T09:49:49.908Z,95.6
2017-06-17T09:50:49.881Z,95.4
2017-06-17T09:51:49.564Z,95.21
2017-06-17T09:52:49.562Z,95.5
2017-06-17T09:53:49.837Z,95.84
2017-06-17T09:54:49.532Z,95.5
2017-06-17T09:55:49.822Z,95.5
2017-06-17T09:56:49.503Z,95.4
2017-06-17T09:57:49.799Z,95.6
2017-06-17T09:58:49.465Z,95.98
2017-06-17T09:59:49.472Z,95.69
2017-06-17T10:00:49.763Z,95.4
2017-06-17T10:01:49.739Z,95.45
2017-06-17T10:02:49.421Z,95.55
2017-06-17T10:03:49.409Z,95.16
2017-06-17T10:04:49.391Z,95.55
2017-06-17T10:05:49.374Z,95.36
2017-06-17T10:06:49.360Z,95.26
2017-06-17T10:07:49.661Z,96.51
2017-06-17T10:08:49.650Z,96.8
2017-06-17T10:09:49.620Z,96.99
2017-06-17T10:10:49.622Z,97.19
2017-06-17T10:11:49.625Z,95.94
2017-06-17T10:12:49.284Z,96.22
2017-06-17T10:13:49.571Z,96.22
2017-06-17T10:14:49.570Z,96.61
2017-06-17T10:15:49.553Z,96.61
2017-06-17T10:16:49.235Z,96.51
2017-06-17T10:17:49.518Z,96.8
2017-06-17T10:18:49.199Z,96.61
2017-06-17T10:19:49.632Z,96.99
2017-06-17T10:20:49.484Z,96.75
2017-06-17T10:21:49.458Z,96.8
2017-06-17T10:22:49.150Z,96.7
2017-06-17T10:23:49.139Z,96.7
2017-06-17T10:24:49.107Z,96.8
2017-06-17T10:25:49.437Z,97.19
2017-06-17T10:26:49.397Z,96.85
2017-06-17T10:27:49.385Z,97.24
2017-06-17T10:28:49.361Z,96.89
2017-06-17T10:29:49.353Z,97.19
2017-06-17T10:30:49.350Z,96.99
2017-06-17T10:31:49.330Z,96.8
2017-06-17T10:32:49.320Z,96.32
2017-06-17T10:33:49.301Z,96.42
2017-06-17T10:34:49.311Z,96.56
2017-06-17T10:35:48.961Z,96.8
2017-06-17T10:36:48.961Z,95.79
2017-06-17T10:37:49.249Z,95.89
2017-06-17T10:38:49.232Z,95.98
2017-06-17T10:39:48.913Z,95.74
2017-06-17T10:40:49.210Z,95.74
2017-06-17T10:41:49.190Z,95.84
2017-06-17T10:42:49.173Z,95.79
2017-06-17T10:43:49.167Z,95.74
2017-06-17T10:44:49.151Z,96.08
2017-06-17T10:45:48.829Z,95.84
2017-06-17T10:46:49.130Z,96.03
2017-06-17T10:47:49.132Z,96.03
2017-06-17T10:48:49.105Z,95.98
2017-06-17T10:49:49.103Z,96.51
2017-06-17T10:50:48.763Z,96.46
2017-06-17T10:51:49.071Z,96.22
2017-06-17T10:52:49.050Z,96.42
2017-06-17T10:53:49.040Z,96.42
2017-06-17T10:54:49.037Z,97.28
2017-06-17T10:55:48.698Z,96.61
2017-06-17T10:56:48.688Z,96.8
2017-06-17T10:57:48.991Z,96.56
2017-06-17T10:58:48.977Z,96.51
2017-06-17T10:59:48.649Z,96.89
2017-06-17T11:00:48.931Z,97.09
2017-06-17T11:01:48.928Z,97.19
2017-06-17T11:02:48.608Z,97.38
2017-06-17T11:03:48.896Z,96.99
2017-06-17T11:04:48.884Z,97.19
2017-06-17T11:05:48.559Z,97.19
2017-06-17T11:06:48.559Z,97.57
2017-06-17T11:07:48.854Z,97.19
2017-06-17T11:08:48.829Z,96.94
2017-06-17T11:09:48.821Z,97.14
2017-06-17T11:10:48.803Z,97.52
2017-06-17T11:11:48.490Z,97.47
2017-06-17T11:12:48.792Z,97.62
2017-06-17T11:13:48.770Z,97.24
2017-06-17T11:14:48.440Z,97.52
2017-06-17T11:15:48.742Z,98
2017-06-17T11:16:48.722Z,98.49
2017-06-17T11:17:48.405Z,98.2
2017-06-17T11:18:48.385Z,98.77
2017-06-17T11:19:48.391Z,98.72
2017-06-17T11:20:48.681Z,98.24
2017-06-17T11:21:48.360Z,98.54
2017-06-17T11:22:48.645Z,98.34
2017-06-17T11:23:48.630Z,98.34
2017-06-17T11:24:48.310Z,98.58
2017-06-17T11:25:48.349Z,98.72
2017-06-17T11:26:48.299Z,98.77
2017-06-17T11:27:48.571Z,98.44
2017-06-17T11:28:48.259Z,98.87
2017-06-17T11:29:48.561Z,98.39
2017-06-17T11:30:48.231Z,98.77
2017-06-17T11:31:48.539Z,98.58
2017-06-17T11:32:48.212Z,98.49
2017-06-17T11:33:48.202Z,98.77
2017-06-17T11:34:48.482Z,98.77
2017-06-17T11:35:48.215Z,98.97
2017-06-17T11:36:48.154Z,98.87
2017-06-17T11:37:48.193Z,98.77
2017-06-17T11:38:48.449Z,98.34
2017-06-17T11:39:48.542Z,97.19
2017-06-17T11:40:48.415Z,96.99
2017-06-17T11:41:48.399Z,96.99
2017-06-17T11:42:48.383Z,96.99
2017-06-17T11:43:48.381Z,97.47
2017-06-17T11:44:48.358Z,97.28
2017-06-17T11:45:48.150Z,96.61
2017-06-17T11:46:48.340Z,97.14
2017-06-17T11:47:48.319Z,97.09
2017-06-17T11:48:48.400Z,97.14
2017-06-17T11:49:48.386Z,97.28
2017-06-17T11:50:48.398Z,97.67
2017-06-17T11:51:48.270Z,97.33
2017-06-17T11:52:48.339Z,97.52
2017-06-17T11:53:48.260Z,97.24
2017-06-17T11:54:48.341Z,97.38
2017-06-17T11:55:48.238Z,97.67
2017-06-17T11:56:48.260Z,96.89
2017-06-17T11:57:48.210Z,97.09
2017-06-17T11:58:48.180Z,97.09
2017-06-17T11:59:48.179Z,97.19
2017-06-17T12:00:48.150Z,97.86
2017-06-17T12:01:48.151Z,97.28
2017-06-17T12:02:48.132Z,97.38
2017-06-17T12:03:48.123Z,97.09
2017-06-17T12:04:48.133Z,97.77
2017-06-17T12:05:48.148Z,97.62
2017-06-17T12:06:48.081Z,97.77
2017-06-17T12:07:47.758Z,97.77
2017-06-17T12:08:48.070Z,97.86
2017-06-17T12:09:48.052Z,98.05
2017-06-17T12:10:48.021Z,98.15
2017-06-17T12:11:48.018Z,97.96
2017-06-17T12:12:47.996Z,97.47
2017-06-17T12:13:47.983Z,97.57
2017-06-17T12:14:47.991Z,98.54
2017-06-17T12:15:47.654Z,98.49
2017-06-17T12:16:47.629Z,97.77
2017-06-17T12:17:47.624Z,96.89
2017-06-17T12:18:47.610Z,97.28
2017-06-17T12:19:47.606Z,97.96
2017-06-17T12:20:47.916Z,98.15
2017-06-17T12:21:47.897Z,97.77
2017-06-17T12:22:47.881Z,97.77
2017-06-17T12:23:47.861Z,98.05
2017-06-17T12:24:47.850Z,96.84
2017-06-17T12:25:47.832Z,95.69
2017-06-17T12:26:47.820Z,95.59
2017-06-17T12:27:47.804Z,95.35
2017-06-17T12:28:47.798Z,94.48
2017-06-17T12:29:47.779Z,93.62
2017-06-17T12:30:47.770Z,93.85
2017-06-17T12:31:47.750Z,93.76
2017-06-17T12:32:47.439Z,93.41
2017-06-17T12:33:47.420Z,93.32
2017-06-17T12:34:47.727Z,92.45
2017-06-17T12:35:47.710Z,92.55
2017-06-17T12:36:47.697Z,92.11
2017-06-17T12:37:47.690Z,92.25
2017-06-17T12:38:47.670Z,92.16
2017-06-17T12:39:47.667Z,91.33
2017-06-17T12:40:47.652Z,90.85
2017-06-17T12:41:47.659Z,90.03
2017-06-17T12:42:47.630Z,89.83
2017-06-17T12:43:47.609Z,89.25
2017-06-17T12:44:47.601Z,89.45
2017-06-17T12:45:47.598Z,88.71
2017-06-17T12:46:47.589Z,88.91
2017-06-17T12:47:47.572Z,88.18
2017-06-17T12:48:47.550Z,87.6
2017-06-17T12:49:47.548Z,87.5
2017-06-17T12:50:47.540Z,88.23
2017-06-17T12:51:47.526Z,86.58
2017-06-17T12:52:47.212Z,86.92
2017-06-17T12:53:47.521Z,87.5
2017-06-17T12:54:47.500Z,87.75
2017-06-17T12:55:47.485Z,87.12